createdAt,value
2023-05-06T00:00:24.223Z,59.80
2023-05-06T00:01:24.378Z,53.70
2023-05-06T00:02:24.301Z,56.30
2023-05-06T00:03:24.314Z,49.40
2023-05-06T00:04:24.236Z,45.20
2023-05-06T00:05:24.199Z,37.10
2023-05-06T00:06:24.193Z,50.10
2023-05-06T00:07:24.149Z,38.60
2023-05-06T00:08:24.191Z,37.50
2023-05-06T00:09:24.160Z,41.50
2023-05-06T00:10:24.110Z,36.00
2023-05-06T00:11:24.221Z,36.30
2023-05-06T00:12:24.101Z,37.10
2023-05-06T00:13:24.096Z,32.30
2023-05-06T00:14:24.099Z,37.80
2023-05-06T00:15:24.076Z,30.40
2023-05-06T00:16:24.082Z,30.10
2023-05-06T00:17:24.217Z,35.80
2023-05-06T00:18:24.073Z,43.60
2023-05-06T00:19:24.016Z,34.00
2023-05-06T00:20:24.027Z,36.30
2023-05-06T00:21:23.995Z,38.50
2023-05-06T00:22:24.092Z,44.60
2023-05-06T00:23:24.005Z,54.40
2023-05-06T00:24:23.993Z,66.00
2023-05-06T00:25:23.958Z,58.50
2023-05-06T00:26:23.976Z,50.60
2023-05-06T00:27:23.972Z,41.50
2023-05-06T00:28:23.976Z,38.00
2023-05-06T00:29:23.935Z,37.00
2023-05-06T00:30:23.943Z,34.70
2023-05-06T00:31:23.939Z,30.50
2023-05-06T00:32:23.972Z,33.10
2023-05-06T00:33:23.863Z,45.50
2023-05-06T00:34:23.877Z,48.30
2023-05-06T00:35:23.892Z,32.80
2023-05-06T00:36:23.864Z,23.90
2023-05-06T00:37:23.853Z,23.60
2023-05-06T00:38:23.832Z,26.20
2023-05-06T00:39:23.822Z,21.90
2023-05-06T00:40:23.811Z,16.60
2023-05-06T00:41:23.831Z,15.00
2023-05-06T00:42:23.776Z,13.80
2023-05-06T00:43:23.790Z,16.90
2023-05-06T00:44:23.780Z,18.50
2023-05-06T00:45:23.746Z,19.00
2023-05-06T00:46:23.887Z,15.80
2023-05-06T00:47:23.722Z,17.20
2023-05-06T00:48:23.724Z,22.70
2023-05-06T00:49:23.701Z,28.40
2023-05-06T00:50:23.733Z,33.30
2023-05-06T00:51:23.733Z,36.80
2023-05-06T00:52:23.673Z,41.30
2023-05-06T00:53:23.678Z,49.90
2023-05-06T00:54:23.668Z,45.40
2023-05-06T00:55:23.671Z,42.50
2023-05-06T00:56:23.648Z,39.10
2023-05-06T00:57:23.648Z,30.50
2023-05-06T00:58:23.622Z,28.80
2023-05-06T00:59:23.609Z,30.70
2023-05-06T01:00:23.629Z,29.20
2023-05-06T01:01:23.583Z,28.60
2023-05-06T01:02:30.612Z,31.60
2023-05-06T01:03:23.678Z,22.70
2023-05-06T01:04:23.581Z,28.60
2023-05-06T01:05:23.588Z,37.70
2023-05-06T01:06:23.532Z,43.50
2023-05-06T01:07:23.513Z,37.10
2023-05-06T01:08:23.517Z,33.20
2023-05-06T01:09:23.529Z,37.80
2023-05-06T01:10:23.520Z,33.10
2023-05-06T01:11:23.491Z,20.10
2023-05-06T01:12:23.471Z,15.10
2023-05-06T01:13:23.493Z,23.20
2023-05-06T01:14:23.525Z,22.60
2023-05-06T01:15:23.432Z,19.50
2023-05-06T01:16:23.608Z,34.20
2023-05-06T01:17:23.457Z,45.70
2023-05-06T01:18:23.447Z,40.80
2023-05-06T01:19:23.424Z,28.30
2023-05-06T01:20:23.389Z,29.40
2023-05-06T01:21:23.367Z,26.20
2023-05-06T01:22:23.394Z,30.70
2023-05-06T01:23:23.413Z,36.50
2023-05-06T01:24:23.340Z,31.10
2023-05-06T01:25:23.362Z,34.00
2023-05-06T01:26:23.317Z,31.60
2023-05-06T01:27:23.317Z,29.40
2023-05-06T01:28:23.338Z,27.30
2023-05-06T01:29:23.314Z,35.20
2023-05-06T01:30:23.317Z,37.90
2023-05-06T01:31:23.327Z,36.40
2023-05-06T01:32:23.329Z,30.90
2023-05-06T01:33:23.290Z,30.30
2023-05-06T01:34:23.240Z,34.20
2023-05-06T01:35:23.227Z,33.80
2023-05-06T01:36:23.216Z,27.70
2023-05-06T01:37:23.257Z,25.40
2023-05-06T01:38:23.190Z,24.50
2023-05-06T01:39:23.183Z,30.90
2023-05-06T01:40:23.177Z,22.60
2023-05-06T01:41:23.172Z,27.30
2023-05-06T01:42:23.160Z,30.30
2023-05-06T01:43:23.198Z,26.00
2023-05-06T01:44:23.158Z,30.90
2023-05-06T01:45:23.124Z,29.60
2023-05-06T01:46:23.188Z,32.10
2023-05-06T01:47:23.127Z,39.60
2023-05-06T01:48:23.085Z,34.50
2023-05-06T01:49:23.080Z,31.00
2023-05-06T01:50:23.088Z,33.50
2023-05-06T01:51:23.128Z,24.80
2023-05-06T01:52:23.049Z,23.30
2023-05-06T01:53:23.036Z,28.60
2023-05-06T01:54:23.032Z,20.10
2023-05-06T01:55:23.046Z,20.40
2023-05-06T01:56:23.024Z,27.40
2023-05-06T01:57:23.002Z,25.50
2023-05-06T01:58:22.977Z,23.80
2023-05-06T01:59:22.970Z,23.90
2023-05-06T02:00:23.105Z,24.00
2023-05-06T02:01:23.037Z,24.20
2023-05-06T02:02:22.966Z,25.20
2023-05-06T02:03:23.003Z,24.70
2023-05-06T02:04:22.932Z,21.50
2023-05-06T02:05:22.920Z,16.80
2023-05-06T02:06:22.897Z,14.10
2023-05-06T02:07:22.882Z,15.90
2023-05-06T02:08:22.892Z,21.00
2023-05-06T02:09:22.861Z,28.50
2023-05-06T02:10:22.899Z,33.70
2023-05-06T02:11:22.865Z,26.80
2023-05-06T02:12:22.834Z,27.10
2023-05-06T02:13:22.889Z,24.80
2023-05-06T02:14:22.845Z,29.90
2023-05-06T02:15:22.875Z,27.90
2023-05-06T02:16:22.859Z,25.40
2023-05-06T02:17:22.835Z,19.20
2023-05-06T02:18:22.767Z,14.40
2023-05-06T02:19:22.808Z,15.30
2023-05-06T02:20:22.769Z,21.90
2023-05-06T02:21:22.766Z,15.90
2023-05-06T02:22:22.780Z,26.40
2023-05-06T02:23:22.726Z,22.10
2023-05-06T02:24:22.740Z,19.50
2023-05-06T02:25:22.717Z,19.00
2023-05-06T02:26:22.693Z,24.50
2023-05-06T02:27:22.668Z,40.20
2023-05-06T02:28:22.722Z,38.30
2023-05-06T02:29:23.610Z,32.20
2023-05-06T02:30:22.691Z,35.90
2023-05-06T02:31:22.851Z,32.10
2023-05-06T02:32:22.888Z,30.40
2023-05-06T02:33:22.640Z,37.00
2023-05-06T02:34:22.603Z,36.50
2023-05-06T02:35:22.600Z,27.30
2023-05-06T02:36:22.591Z,20.60
2023-05-06T02:37:22.588Z,22.60
2023-05-06T02:38:22.629Z,19.50
2023-05-06T02:39:22.559Z,29.80
2023-05-06T02:40:22.554Z,35.90
2023-05-06T02:41:22.562Z,30.10
2023-05-06T02:42:23.859Z,31.00
2023-05-06T02:43:22.701Z,30.50
2023-05-06T02:44:22.516Z,28.20
2023-05-06T02:45:22.483Z,19.90
2023-05-06T02:46:22.606Z,19.10
2023-05-06T02:47:23.072Z,20.30
2023-05-06T02:48:22.457Z,22.90
2023-05-06T02:49:22.482Z,22.70
2023-05-06T02:50:22.447Z,22.60
2023-05-06T02:51:22.435Z,26.50
2023-05-06T02:52:23.199Z,19.10
2023-05-06T02:53:22.405Z,31.10
2023-05-06T02:54:22.399Z,22.80
2023-05-06T02:55:22.485Z,22.60
2023-05-06T02:56:22.482Z,19.50
2023-05-06T02:57:23.359Z,21.60
2023-05-06T02:58:23.461Z,22.50
2023-05-06T02:59:23.347Z,25.60
2023-05-06T03:00:22.468Z,24.10
2023-05-06T03:01:22.421Z,30.80
2023-05-06T03:02:22.360Z,27.80
2023-05-06T03:03:22.354Z,34.50
2023-05-06T03:04:22.330Z,38.20
2023-05-06T03:05:22.491Z,33.70
2023-05-06T03:06:24.731Z,31.70
2023-05-06T03:07:22.697Z,39.10
2023-05-06T03:08:22.264Z,34.00
2023-05-06T03:09:22.240Z,31.90
2023-05-06T03:10:22.229Z,35.70
2023-05-06T03:11:22.241Z,34.70
2023-05-06T03:12:22.190Z,28.00
2023-05-06T03:13:22.241Z,21.30
2023-05-06T03:14:22.200Z,34.00
2023-05-06T03:15:22.190Z,29.00
2023-05-06T03:16:22.323Z,25.90
2023-05-06T03:17:22.140Z,30.00
2023-05-06T03:18:22.159Z,34.40
2023-05-06T03:19:22.119Z,30.90
2023-05-06T03:20:22.240Z,30.80
2023-05-06T03:21:22.183Z,30.30
2023-05-06T03:22:22.113Z,26.40
2023-05-06T03:23:22.094Z,28.50
2023-05-06T03:24:22.098Z,34.20
2023-05-06T03:25:22.094Z,40.40
2023-05-06T03:26:22.065Z,37.00
2023-05-06T03:27:22.043Z,33.50
2023-05-06T03:28:22.033Z,29.10
2023-05-06T03:29:22.050Z,27.90
2023-05-06T03:30:22.008Z,32.80
2023-05-06T03:31:22.066Z,24.60
2023-05-06T03:32:21.996Z,24.00
2023-05-06T03:33:22.003Z,24.00
2023-05-06T03:34:21.993Z,23.80
2023-05-06T03:35:21.957Z,25.70
2023-05-06T03:36:21.951Z,29.50
2023-05-06T03:37:21.956Z,27.10
2023-05-06T03:38:21.934Z,26.60
2023-05-06T03:39:21.967Z,30.50
2023-05-06T03:40:21.935Z,27.80
2023-05-06T03:41:21.900Z,29.60
2023-05-06T03:42:21.877Z,31.10
2023-05-06T03:43:21.941Z,27.10
2023-05-06T03:44:21.888Z,26.10
2023-05-06T03:45:21.842Z,16.20
2023-05-06T03:46:21.878Z,15.50
2023-05-06T03:47:21.841Z,16.10
2023-05-06T03:48:21.836Z,11.80
2023-05-06T03:49:21.815Z,15.10
2023-05-06T03:50:21.833Z,23.30
2023-05-06T03:51:21.824Z,25.10
2023-05-06T03:52:21.773Z,20.60
2023-05-06T03:53:21.831Z,18.20
2023-05-06T03:54:21.759Z,21.10
2023-05-06T03:55:21.771Z,31.30
2023-05-06T03:56:21.731Z,29.50
2023-05-06T03:57:21.752Z,26.00
2023-05-06T03:58:21.734Z,21.60
2023-05-06T03:59:21.732Z,24.00
2023-05-06T04:00:21.706Z,18.30
2023-05-06T04:01:21.727Z,25.40
2023-05-06T04:02:21.825Z,19.10
2023-05-06T04:03:21.723Z,22.20
2023-05-06T04:04:21.647Z,25.70
2023-05-06T04:05:21.677Z,30.70
2023-05-06T04:06:21.651Z,34.10
2023-05-06T04:07:21.648Z,28.60
2023-05-06T04:08:21.671Z,35.50
2023-05-06T04:09:21.624Z,44.60
2023-05-06T04:10:21.587Z,40.20
2023-05-06T04:11:21.582Z,41.80
2023-05-06T04:12:21.618Z,38.90
2023-05-06T04:13:21.713Z,35.70
2023-05-06T04:14:21.561Z,37.40
2023-05-06T04:15:21.571Z,45.40
2023-05-06T04:16:21.604Z,47.70
2023-05-06T04:17:21.541Z,53.20
2023-05-06T04:18:21.530Z,62.30
2023-05-06T04:19:21.613Z,69.20
2023-05-06T04:20:21.495Z,65.10
2023-05-06T04:21:21.494Z,48.20
2023-05-06T04:22:21.465Z,31.80
2023-05-06T04:23:21.487Z,32.30
2023-05-06T04:24:21.446Z,26.20
2023-05-06T04:25:21.439Z,33.30
2023-05-06T04:26:21.446Z,37.30
2023-05-06T04:27:21.430Z,57.50
2023-05-06T04:28:21.431Z,56.40
2023-05-06T04:29:21.405Z,57.80
2023-05-06T04:30:21.425Z,61.30
2023-05-06T04:31:21.455Z,60.50
2023-05-06T04:32:21.387Z,54.10
2023-05-06T04:33:21.370Z,43.00
2023-05-06T04:34:21.356Z,50.40
2023-05-06T04:35:21.389Z,38.60
2023-05-06T04:36:21.325Z,38.10
2023-05-06T04:37:21.326Z,42.30
2023-05-06T04:38:21.323Z,53.60
2023-05-06T04:39:21.309Z,72.30
2023-05-06T04:40:21.300Z,84.60
2023-05-06T04:41:21.276Z,85.10
2023-05-06T04:42:21.276Z,87.30
2023-05-06T04:43:21.266Z,103.50
2023-05-06T04:44:21.318Z,93.80
2023-05-06T04:45:21.259Z,95.60
2023-05-06T04:46:21.394Z,107.00
2023-05-06T04:47:21.247Z,93.90
2023-05-06T04:48:21.198Z,94.80
2023-05-06T04:49:21.238Z,104.90
2023-05-06T04:50:21.236Z,120.80
2023-05-06T04:51:21.193Z,125.60
2023-05-06T04:52:21.170Z,128.00
2023-05-06T04:53:21.192Z,138.80
2023-05-06T04:54:21.178Z,142.10
2023-05-06T04:55:21.172Z,134.40
2023-05-06T04:56:21.114Z,117.40
2023-05-06T04:57:21.115Z,114.70
2023-05-06T04:58:21.139Z,124.40
2023-05-06T04:59:21.115Z,126.00
2023-05-06T05:00:21.083Z,126.50
2023-05-06T05:01:21.097Z,128.70
2023-05-06T05:02:21.127Z,115.80
2023-05-06T05:03:21.234Z,115.10
2023-05-06T05:04:21.053Z,122.80
2023-05-06T05:05:21.031Z,111.00
2023-05-06T05:06:21.020Z,104.00
2023-05-06T05:07:21.043Z,102.80
2023-05-06T05:08:21.025Z,106.30
2023-05-06T05:09:20.986Z,115.50
2023-05-06T05:10:20.972Z,130.50
2023-05-06T05:11:20.982Z,141.90
2023-05-06T05:12:20.969Z,145.70
2023-05-06T05:13:21.000Z,145.20
2023-05-06T05:14:20.953Z,142.70
2023-05-06T05:15:20.923Z,145.60
2023-05-06T05:16:20.923Z,147.20
2023-05-06T05:17:20.926Z,159.30
2023-05-06T05:18:20.882Z,160.00
2023-05-06T05:19:20.903Z,160.50
2023-05-06T05:20:20.870Z,159.50
2023-05-06T05:21:20.897Z,156.10
2023-05-06T05:22:20.907Z,160.20
2023-05-06T05:23:20.840Z,158.00
2023-05-06T05:24:20.831Z,162.70
2023-05-06T05:25:20.814Z,161.60
2023-05-06T05:26:20.831Z,157.10
2023-05-06T05:27:20.794Z,157.20
2023-05-06T05:28:20.786Z,160.60
2023-05-06T05:29:27.289Z,157.90
2023-05-06T05:30:20.773Z,159.20
2023-05-06T05:31:20.791Z,155.60
2023-05-06T05:32:27.247Z,153.60
2023-05-06T05:33:20.821Z,152.60
2023-05-06T05:34:20.717Z,156.90
2023-05-06T05:35:20.813Z,158.10
2023-05-06T05:36:20.764Z,156.50
2023-05-06T05:37:20.681Z,159.60
2023-05-06T05:38:20.672Z,161.80
2023-05-06T05:39:20.656Z,157.20
2023-05-06T05:40:20.702Z,159.80
2023-05-06T05:41:20.657Z,160.20
2023-05-06T05:42:20.656Z,171.80
2023-05-06T05:43:20.621Z,181.30
2023-05-06T05:44:20.631Z,187.70
2023-05-06T05:45:20.605Z,193.60
2023-05-06T05:46:20.642Z,193.10
2023-05-06T05:47:20.587Z,199.70
2023-05-06T05:48:20.592Z,199.70
2023-05-06T05:49:20.603Z,204.50
2023-05-06T05:50:20.607Z,202.80
2023-05-06T05:51:20.530Z,200.70
2023-05-06T05:52:20.522Z,199.40
2023-05-06T05:53:20.511Z,193.40
2023-05-06T05:54:20.517Z,186.60
2023-05-06T05:55:20.524Z,176.90
2023-05-06T05:56:20.588Z,169.90
2023-05-06T05:57:20.473Z,160.70
2023-05-06T05:58:20.476Z,151.80
2023-05-06T05:59:20.480Z,151.50
2023-05-06T06:00:20.504Z,150.70
2023-05-06T06:01:20.551Z,149.40
2023-05-06T06:02:20.627Z,159.20
2023-05-06T06:03:20.471Z,156.00
2023-05-06T06:04:20.454Z,154.30
2023-05-06T06:05:20.386Z,166.90
2023-05-06T06:06:20.382Z,153.60
2023-05-06T06:07:20.372Z,137.30
2023-05-06T06:08:20.342Z,123.30
2023-05-06T06:09:20.418Z,125.60
2023-05-06T06:10:20.346Z,135.30
2023-05-06T06:11:20.359Z,150.00
2023-05-06T06:12:20.323Z,146.00
2023-05-06T06:13:20.412Z,143.00
2023-05-06T06:14:20.330Z,156.30
2023-05-06T06:15:20.268Z,161.60
2023-05-06T06:16:20.367Z,143.30
2023-05-06T06:17:20.267Z,134.90
2023-05-06T06:18:20.275Z,139.60
2023-05-06T06:19:20.882Z,130.30
2023-05-06T06:20:20.238Z,127.30
2023-05-06T06:21:20.214Z,143.50
2023-05-06T06:22:20.201Z,152.40
2023-05-06T06:23:20.419Z,136.10
2023-05-06T06:24:22.416Z,126.60
2023-05-06T06:25:20.214Z,130.80
2023-05-06T06:26:21.767Z,117.90
2023-05-06T06:27:20.878Z,141.80
2023-05-06T06:28:20.364Z,147.50
2023-05-06T06:29:20.248Z,138.00
2023-05-06T06:30:20.232Z,145.70
2023-05-06T06:31:22.243Z,134.60
2023-05-06T06:32:21.408Z,133.10
2023-05-06T06:33:21.143Z,128.40
2023-05-06T06:34:20.231Z,133.60
2023-05-06T06:35:21.624Z,141.70
2023-05-06T06:36:21.167Z,137.00
2023-05-06T06:37:20.547Z,134.30
2023-05-06T06:38:20.049Z,137.60
2023-05-06T06:39:23.480Z,133.60
2023-05-06T06:40:21.551Z,141.70
2023-05-06T06:41:22.034Z,140.80
2023-05-06T06:42:20.987Z,131.80
2023-05-06T06:43:20.005Z,139.40
2023-05-06T06:44:19.981Z,141.70
2023-05-06T06:45:19.970Z,138.20
2023-05-06T06:46:20.041Z,138.00
2023-05-06T06:47:20.020Z,141.90
2023-05-06T06:48:19.939Z,143.10
2023-05-06T06:49:19.916Z,148.80
2023-05-06T06:50:19.931Z,154.30
2023-05-06T06:51:20.066Z,140.20
2023-05-06T06:52:19.929Z,135.40
2023-05-06T06:53:19.913Z,136.60
2023-05-06T06:54:19.886Z,142.50
2023-05-06T06:55:19.861Z,141.10
2023-05-06T06:56:19.873Z,143.70
2023-05-06T06:57:19.853Z,127.10
2023-05-06T06:58:19.845Z,136.90
2023-05-06T06:59:19.827Z,137.50
2023-05-06T07:00:19.816Z,137.50
2023-05-06T07:01:19.851Z,121.60
2023-05-06T07:02:19.783Z,115.80
2023-05-06T07:03:19.890Z,78.30
2023-05-06T07:04:19.824Z,49.40
2023-05-06T07:05:19.776Z,56.40
2023-05-06T07:06:19.834Z,61.10
2023-05-06T07:07:19.736Z,37.30
2023-05-06T07:08:19.732Z,62.60
2023-05-06T07:09:19.706Z,80.30
2023-05-06T07:10:19.738Z,71.00
2023-05-06T07:11:19.733Z,33.30
2023-05-06T07:12:19.668Z,37.10
2023-05-06T07:13:19.762Z,34.50
2023-05-06T07:14:19.667Z,23.30
2023-05-06T07:15:19.686Z,18.30
2023-05-06T07:16:19.669Z,19.40
2023-05-06T07:17:19.790Z,18.90
2023-05-06T07:18:19.627Z,20.50
2023-05-06T07:19:19.691Z,9.60
2023-05-06T07:20:19.640Z,8.00
2023-05-06T07:21:19.615Z,11.10
2023-05-06T07:22:19.573Z,12.10
2023-05-06T07:23:19.587Z,6.70
2023-05-06T07:24:19.598Z,6.10
2023-05-06T07:25:19.549Z,6.20
2023-05-06T07:26:19.550Z,6.60
2023-05-06T07:27:19.558Z,6.30
2023-05-06T07:28:19.534Z,6.00
2023-05-06T07:29:19.518Z,5.80
2023-05-06T07:30:21.061Z,5.40
2023-05-06T07:31:19.530Z,4.80
2023-05-06T07:32:19.621Z,4.90
2023-05-06T07:33:19.489Z,5.60
2023-05-06T07:34:19.507Z,5.90
2023-05-06T07:35:19.424Z,5.20
2023-05-06T07:36:19.416Z,5.50
2023-05-06T07:37:19.433Z,5.10
2023-05-06T07:38:19.431Z,5.60
2023-05-06T07:39:19.374Z,6.30
2023-05-06T07:40:19.373Z,5.20
2023-05-06T07:41:19.359Z,5.10
2023-05-06T07:42:19.447Z,5.20
2023-05-06T07:43:19.373Z,4.90
2023-05-06T07:44:19.352Z,6.10
2023-05-06T07:45:19.319Z,5.40
2023-05-06T07:46:19.389Z,6.30
2023-05-06T07:47:19.340Z,5.60
2023-05-06T07:48:20.191Z,5.30
2023-05-06T07:49:19.269Z,6.10
2023-05-06T07:50:19.293Z,5.30
2023-05-06T07:51:19.338Z,5.20
2023-05-06T07:52:19.315Z,5.60
2023-05-06T07:53:19.255Z,5.10
2023-05-06T07:54:19.268Z,6.20
2023-05-06T07:55:19.214Z,6.00
2023-05-06T07:56:19.221Z,5.00
2023-05-06T07:57:19.244Z,5.70
2023-05-06T07:58:19.195Z,7.30
2023-05-06T07:59:19.178Z,5.70
2023-05-06T08:00:19.174Z,6.20
2023-05-06T08:01:19.149Z,6.30
2023-05-06T08:02:19.220Z,6.10
2023-05-06T08:03:19.252Z,6.60
2023-05-06T08:04:19.209Z,5.80
2023-05-06T08:05:19.108Z,6.60
2023-05-06T08:06:19.163Z,5.90
2023-05-06T08:07:19.136Z,5.70
2023-05-06T08:08:19.094Z,6.00
2023-05-06T08:09:23.064Z,6.00
2023-05-06T08:10:19.067Z,5.50
2023-05-06T08:11:19.530Z,6.20
2023-05-06T08:12:19.045Z,6.60
2023-05-06T08:13:19.067Z,6.60
2023-05-06T08:14:19.040Z,6.30
2023-05-06T08:15:19.012Z,6.50
2023-05-06T08:16:19.163Z,7.20
2023-05-06T08:17:19.018Z,7.50
2023-05-06T08:18:23.012Z,7.10
2023-05-06T08:19:18.968Z,5.90
2023-05-06T08:20:18.993Z,7.50
2023-05-06T08:21:18.978Z,6.40
2023-05-06T08:22:18.932Z,6.30
2023-05-06T08:23:18.961Z,7.50
2023-05-06T08:24:18.929Z,7.60
2023-05-06T08:25:18.938Z,7.20
2023-05-06T08:26:18.925Z,6.80
2023-05-06T08:27:18.920Z,7.90
2023-05-06T08:28:18.865Z,8.10
2023-05-06T08:29:19.802Z,8.00
2023-05-06T08:30:18.890Z,8.00
2023-05-06T08:31:18.871Z,7.70
2023-05-06T08:32:18.838Z,7.00
2023-05-06T08:33:18.831Z,8.40
2023-05-06T08:34:18.834Z,7.10
2023-05-06T08:35:18.847Z,8.10
2023-05-06T08:36:18.855Z,9.60
2023-05-06T08:37:18.771Z,8.60
2023-05-06T08:38:18.772Z,10.80
2023-05-06T08:39:18.785Z,9.50
2023-05-06T08:40:18.789Z,8.20
2023-05-06T08:41:18.730Z,10.60
2023-05-06T08:42:18.760Z,10.20
2023-05-06T08:43:18.714Z,10.90
2023-05-06T08:44:18.745Z,8.60
2023-05-06T08:45:18.693Z,9.20
2023-05-06T08:46:18.877Z,11.00
2023-05-06T08:47:18.713Z,9.80
2023-05-06T08:48:18.745Z,11.10
2023-05-06T08:49:18.708Z,12.40
2023-05-06T08:50:18.959Z,11.60
2023-05-06T08:51:18.763Z,10.00
2023-05-06T08:52:18.622Z,10.10
2023-05-06T08:53:18.631Z,10.70
2023-05-06T08:54:18.609Z,11.90
2023-05-06T08:55:18.617Z,12.30
2023-05-06T08:56:18.583Z,11.90
2023-05-06T08:57:18.563Z,10.80
2023-05-06T08:58:18.636Z,12.00
2023-05-06T08:59:18.526Z,13.10
2023-05-06T09:00:18.528Z,14.30
2023-05-06T09:01:18.590Z,11.60
2023-05-06T09:02:18.637Z,12.40
2023-05-06T09:03:18.643Z,9.20
2023-05-06T09:04:18.481Z,8.70
2023-05-06T09:05:18.461Z,10.70
2023-05-06T09:06:18.559Z,12.00
2023-05-06T09:07:18.481Z,11.20
2023-05-06T09:08:18.466Z,14.20
2023-05-06T09:09:18.489Z,12.80
2023-05-06T09:10:18.434Z,14.00
2023-05-06T09:11:18.408Z,12.20
2023-05-06T09:12:18.423Z,13.70
2023-05-06T09:13:18.495Z,13.00
2023-05-06T09:14:18.393Z,12.70
2023-05-06T09:15:18.373Z,12.80
2023-05-06T09:16:18.392Z,12.20
2023-05-06T09:17:18.385Z,12.50
2023-05-06T09:18:18.332Z,12.40
2023-05-06T09:19:18.341Z,12.30
2023-05-06T09:20:18.322Z,12.00
2023-05-06T09:21:18.321Z,12.30
2023-05-06T09:22:18.354Z,12.90
2023-05-06T09:23:18.282Z,14.50
2023-05-06T09:24:18.283Z,12.20
2023-05-06T09:25:18.251Z,10.40
2023-05-06T09:26:18.309Z,11.60
2023-05-06T09:27:18.231Z,11.20
2023-05-06T09:28:18.236Z,11.20
2023-05-06T09:29:18.220Z,10.50
2023-05-06T09:30:18.283Z,11.30
2023-05-06T09:31:24.720Z,11.90
2023-05-06T09:32:18.183Z,10.50
2023-05-06T09:33:18.177Z,11.80
2023-05-06T09:34:18.227Z,11.20
2023-05-06T09:35:18.192Z,12.90
2023-05-06T09:36:18.159Z,11.40
2023-05-06T09:37:18.132Z,12.50
2023-05-06T09:38:18.113Z,12.60
2023-05-06T09:39:18.136Z,9.70
2023-05-06T09:40:18.157Z,10.10
2023-05-06T09:41:18.088Z,11.30
2023-05-06T09:42:18.100Z,10.50
2023-05-06T09:43:18.068Z,11.10
2023-05-06T09:44:18.057Z,11.10
2023-05-06T09:45:18.075Z,11.10
2023-05-06T09:46:18.080Z,11.70
2023-05-06T09:47:18.030Z,10.50
2023-05-06T09:48:18.025Z,10.90
2023-05-06T09:49:18.038Z,10.40
2023-05-06T09:50:18.069Z,10.70
2023-05-06T09:51:17.988Z,12.30
2023-05-06T09:52:17.983Z,11.40
2023-05-06T09:53:17.994Z,11.90
2023-05-06T09:54:18.029Z,11.40
2023-05-06T09:55:17.976Z,9.50
2023-05-06T09:56:17.963Z,10.40
2023-05-06T09:57:17.930Z,10.60
2023-05-06T09:58:17.914Z,10.20
2023-05-06T09:59:17.932Z,9.80
2023-05-06T10:00:17.948Z,9.80
2023-05-06T10:01:32.755Z,9.90
2023-05-06T10:02:18.029Z,10.50
2023-05-06T10:03:17.983Z,10.70
2023-05-06T10:04:18.115Z,10.40
2023-05-06T10:05:18.330Z,10.50
2023-05-06T10:06:17.848Z,10.60
2023-05-06T10:07:17.830Z,12.00
2023-05-06T10:08:17.858Z,12.00
2023-05-06T10:09:17.793Z,13.60
2023-05-06T10:10:17.934Z,12.20
2023-05-06T10:11:17.800Z,11.40
2023-05-06T10:12:17.771Z,10.80
2023-05-06T10:13:17.858Z,10.40
2023-05-06T10:14:17.741Z,12.10
2023-05-06T10:15:17.742Z,10.20
2023-05-06T10:16:17.742Z,10.40
2023-05-06T10:17:17.809Z,12.90
2023-05-06T10:18:17.731Z,12.00
2023-05-06T10:19:17.708Z,11.10
2023-05-06T10:20:17.772Z,12.30
2023-05-06T10:21:17.662Z,10.40
2023-05-06T10:22:17.674Z,10.70
2023-05-06T10:23:17.695Z,12.60
2023-05-06T10:24:17.636Z,10.50
2023-05-06T10:25:17.614Z,10.00
2023-05-06T10:26:17.612Z,9.40
2023-05-06T10:27:17.764Z,10.10
2023-05-06T10:28:25.397Z,10.40
2023-05-06T10:29:17.582Z,10.30
2023-05-06T10:30:17.669Z,11.30
2023-05-06T10:31:17.588Z,12.00
2023-05-06T10:32:17.575Z,10.70
2023-05-06T10:33:17.553Z,10.20
2023-05-06T10:34:17.550Z,11.40
2023-05-06T10:35:17.539Z,10.20
2023-05-06T10:36:17.539Z,10.40
2023-05-06T10:37:17.510Z,10.60
2023-05-06T10:38:17.477Z,10.00
2023-05-06T10:39:17.473Z,11.10
2023-05-06T10:40:17.471Z,11.50
2023-05-06T10:41:17.485Z,10.10
2023-05-06T10:42:17.496Z,10.80
2023-05-06T10:43:17.414Z,10.20
2023-05-06T10:44:17.414Z,10.90
2023-05-06T10:45:17.402Z,9.80
2023-05-06T10:46:17.475Z,9.50
2023-05-06T10:47:17.382Z,9.50
2023-05-06T10:48:17.428Z,9.90
2023-05-06T10:49:17.363Z,10.50
2023-05-06T10:50:17.408Z,10.90
2023-05-06T10:51:17.394Z,10.80
2023-05-06T10:52:17.354Z,9.50
2023-05-06T10:53:17.320Z,9.80
2023-05-06T10:54:17.301Z,10.50
2023-05-06T10:55:17.321Z,10.10
2023-05-06T10:56:17.275Z,9.60
2023-05-06T10:57:17.273Z,9.90
2023-05-06T10:58:17.272Z,8.30
2023-05-06T10:59:17.354Z,9.70
2023-05-06T11:00:17.282Z,9.10
2023-05-06T11:01:17.268Z,9.10
2023-05-06T11:02:17.265Z,8.70
2023-05-06T11:03:17.291Z,7.50
2023-05-06T11:04:17.206Z,9.20
2023-05-06T11:05:17.236Z,8.10
2023-05-06T11:06:17.181Z,8.00
2023-05-06T11:07:17.184Z,8.40
2023-05-06T11:08:17.158Z,7.30
2023-05-06T11:09:17.177Z,8.00
2023-05-06T11:10:17.154Z,6.20
2023-05-06T11:11:17.147Z,6.80
2023-05-06T11:12:17.131Z,7.40
2023-05-06T11:13:17.265Z,6.70
2023-05-06T11:14:17.241Z,7.20
2023-05-06T11:15:17.118Z,6.60
2023-05-06T11:16:17.231Z,5.90
2023-05-06T11:17:17.150Z,6.50
2023-05-06T11:18:17.186Z,7.30
2023-05-06T11:19:17.070Z,6.40
2023-05-06T11:20:17.051Z,8.10
2023-05-06T11:21:17.028Z,6.80
2023-05-06T11:22:17.054Z,6.90
2023-05-06T11:23:17.021Z,6.90
2023-05-06T11:24:17.008Z,8.90
2023-05-06T11:25:16.998Z,7.60
2023-05-06T11:26:16.989Z,6.00
2023-05-06T11:27:16.951Z,6.60
2023-05-06T11:28:16.975Z,6.80
2023-05-06T11:29:16.928Z,6.80
2023-05-06T11:30:16.939Z,7.20
2023-05-06T11:31:16.966Z,5.80
2023-05-06T11:32:16.933Z,6.60
2023-05-06T11:33:17.055Z,5.10
2023-05-06T11:34:16.988Z,4.60
2023-05-06T11:35:16.882Z,4.30
2023-05-06T11:36:16.880Z,4.50
2023-05-06T11:37:16.862Z,4.60
2023-05-06T11:38:16.904Z,4.40
2023-05-06T11:39:16.848Z,4.00
2023-05-06T11:40:16.830Z,4.20
2023-05-06T11:41:16.828Z,5.10
2023-05-06T11:42:16.850Z,5.50
2023-05-06T11:43:16.829Z,5.60
2023-05-06T11:44:16.777Z,6.90
2023-05-06T11:45:16.777Z,6.10
2023-05-06T11:46:16.792Z,6.00
2023-05-06T11:47:16.775Z,5.00
2023-05-06T11:48:16.751Z,5.20
2023-05-06T11:49:16.733Z,5.10
2023-05-06T11:50:16.709Z,4.70
2023-05-06T11:51:16.731Z,4.10
2023-05-06T11:52:16.775Z,5.40
2023-05-06T11:53:16.693Z,4.60
2023-05-06T11:54:16.669Z,4.80
2023-05-06T11:55:16.640Z,4.80
2023-05-06T11:56:16.685Z,5.20
2023-05-06T11:57:16.639Z,4.90
2023-05-06T11:58:16.657Z,5.30
2023-05-06T11:59:16.605Z,4.70
2023-05-06T12:00:16.621Z,4.80
2023-05-06T12:01:16.649Z,4.50
2023-05-06T12:02:16.685Z,5.10
2023-05-06T12:03:16.661Z,4.70
2023-05-06T12:04:16.575Z,5.60
2023-05-06T12:05:16.568Z,5.00
2023-05-06T12:06:16.555Z,5.80
2023-05-06T12:07:16.538Z,5.50
2023-05-06T12:08:26.654Z,5.70
2023-05-06T12:09:16.505Z,5.70
2023-05-06T12:10:16.526Z,5.60
2023-05-06T12:11:16.480Z,4.40
2023-05-06T12:12:16.501Z,6.10
2023-05-06T12:13:16.543Z,5.20
2023-05-06T12:14:16.444Z,6.10
2023-05-06T12:15:16.470Z,5.50
2023-05-06T12:16:16.430Z,5.00
2023-05-06T12:17:16.416Z,5.70
2023-05-06T12:18:16.441Z,5.90
2023-05-06T12:19:16.426Z,5.10
2023-05-06T12:20:16.406Z,5.20
2023-05-06T12:21:16.375Z,6.10
2023-05-06T12:22:16.454Z,5.50
2023-05-06T12:23:16.417Z,5.70
2023-05-06T12:24:16.425Z,6.40
2023-05-06T12:25:16.330Z,5.80
2023-05-06T12:26:16.318Z,5.20
2023-05-06T12:27:16.316Z,6.10
2023-05-06T12:28:16.284Z,5.90
2023-05-06T12:29:16.341Z,5.60
2023-05-06T12:30:16.273Z,5.70
2023-05-06T12:31:16.282Z,5.90
2023-05-06T12:32:16.335Z,5.40
2023-05-06T12:33:16.301Z,6.00
2023-05-06T12:34:16.537Z,5.00
2023-05-06T12:35:16.371Z,6.00
2023-05-06T12:36:16.203Z,5.30
2023-05-06T12:37:16.204Z,5.20
2023-05-06T12:38:16.250Z,5.70
2023-05-06T12:39:16.260Z,5.30
2023-05-06T12:40:16.262Z,6.40
2023-05-06T12:41:16.159Z,5.30
2023-05-06T12:42:16.166Z,5.30
2023-05-06T12:43:16.183Z,5.30
2023-05-06T12:44:16.125Z,5.70
2023-05-06T12:45:16.127Z,5.10
2023-05-06T12:46:16.189Z,4.60
2023-05-06T12:47:16.114Z,5.90
2023-05-06T12:48:16.115Z,5.20
2023-05-06T12:49:16.074Z,5.40
2023-05-06T12:50:16.067Z,5.20
2023-05-06T12:51:16.066Z,6.20
2023-05-06T12:52:16.114Z,5.20
2023-05-06T12:53:16.048Z,4.90
2023-05-06T12:54:16.014Z,5.80
2023-05-06T12:55:16.013Z,5.20